sensor_id;sensor_type;location;lat;lon;timestamp;P1;durP1;ratioP1;P2;durP2;ratioP2
71207;SDS011;58938;49.868;8.646;2024-02-21T00:01:47;15.40;;;5.20;;
71207;SDS011;58938;49.868;8.646;2024-02-21T00:04:13;13.93;;;5.20;;
71207;SDS011;58938;49.868;8.646;2024-02-21T00:06:39;20.53;;;6.17;;
71207;SDS011;58938;49.868;8.646;2024-02-21T00:09:05;18.70;;;5.30;;
71207;SDS011;58938;49.868;8.646;2024-02-21T00:11:31;17.48;;;6.45;;
71207;SDS011;58938;49.868;8.646;2024-02-21T00:13:57;18.30;;;6.65;;
71207;SDS011;58938;49.868;8.646;2024-02-21T00:16:23;14.33;;;6.03;;
71207;SDS011;58938;49.868;8.646;2024-02-21T00:18:49;18.02;;;6.50;;
71207;SDS011;58938;49.868;8.646;2024-02-21T00:21:14;13.30;;;5.93;;
71207;SDS011;58938;49.868;8.646;2024-02-21T00:23:46;14.15;;;5.75;;
71207;SDS011;58938;49.868;8.646;2024-02-21T00:26:15;15.43;;;5.03;;
71207;SDS011;58938;49.868;8.646;2024-02-21T00:28:40;15.77;;;6.78;;
71207;SDS011;58938;49.868;8.646;2024-02-21T00:31:06;16.55;;;5.55;;
71207;SDS011;58938;49.868;8.646;2024-02-21T00:33:32;16.10;;;5.93;;
71207;SDS011;58938;49.868;8.646;2024-02-21T00:35:58;18.67;;;6.13;;
71207;SDS011;58938;49.868;8.646;2024-02-21T00:38:24;18.50;;;6.43;;
71207;SDS011;58938;49.868;8.646;2024-02-21T00:40:50;13.32;;;5.75;;
71207;SDS011;58938;49.868;8.646;2024-02-21T00:43:16;16.23;;;6.17;;
71207;SDS011;58938;49.868;8.646;2024-02-21T00:45:42;15.77;;;6.13;;
71207;SDS011;58938;49.868;8.646;2024-02-21T00:48:08;19.15;;;6.00;;
71207;SDS011;58938;49.868;8.646;2024-02-21T00:50:34;16.40;;;6.45;;
71207;SDS011;58938;49.868;8.646;2024-02-21T00:53:02;20.00;;;5.57;;
71207;SDS011;58938;49.868;8.646;2024-02-21T00:55:28;16.98;;;6.28;;
71207;SDS011;58938;49.868;8.646;2024-02-21T00:57:54;16.92;;;5.55;;
71207;SDS011;58938;49.868;8.646;2024-02-21T01:00:20;18.27;;;6.07;;
71207;SDS011;58938;49.868;8.646;2024-02-21T01:02:46;19.30;;;7.07;;
71207;SDS011;58938;49.868;8.646;2024-02-21T01:05:12;17.33;;;6.43;;
71207;SDS011;58938;49.868;8.646;2024-02-21T01:07:38;16.92;;;6.75;;
71207;SDS011;58938;49.868;8.646;2024-02-21T01:10:04;15.80;;;6.05;;
71207;SDS011;58938;49.868;8.646;2024-02-21T01:12:30;17.15;;;6.50;;
71207;SDS011;58938;49.868;8.646;2024-02-21T01:14:56;12.90;;;6.37;;
71207;SDS011;58938;49.868;8.646;2024-02-21T01:17:22;17.10;;;6.38;;
71207;SDS011;58938;49.868;8.646;2024-02-21T01:19:48;14.15;;;5.80;;
71207;SDS011;58938;49.868;8.646;2024-02-21T01:22:14;14.82;;;6.00;;
71207;SDS011;58938;49.868;8.646;2024-02-21T01:24:41;20.27;;;6.50;;
71207;SDS011;58938;49.868;8.646;2024-02-21T01:27:07;16.77;;;6.93;;
71207;SDS011;58938;49.868;8.646;2024-02-21T01:29:33;15.70;;;6.72;;
71207;SDS011;58938;49.868;8.646;2024-02-21T01:31:59;14.88;;;6.28;;
71207;SDS011;58938;49.868;8.646;2024-02-21T01:34:25;19.33;;;6.50;;
71207;SDS011;58938;49.868;8.646;2024-02-21T01:36:51;15.55;;;6.68;;
71207;SDS011;58938;49.868;8.646;2024-02-21T01:39:17;17.48;;;6.80;;
71207;SDS011;58938;49.868;8.646;2024-02-21T01:41:43;14.82;;;6.65;;
71207;SDS011;58938;49.868;8.646;2024-02-21T01:44:09;21.50;;;6.73;;
71207;SDS011;58938;49.868;8.646;2024-02-21T01:46:35;16.35;;;6.35;;
71207;SDS011;58938;49.868;8.646;2024-02-21T01:49:01;22.02;;;7.70;;
71207;SDS011;58938;49.868;8.646;2024-02-21T01:51:27;19.65;;;6.30;;
71207;SDS011;58938;49.868;8.646;2024-02-21T01:53:53;21.20;;;6.30;;
71207;SDS011;58938;49.868;8.646;2024-02-21T01:56:21;20.35;;;6.10;;
71207;SDS011;58938;49.868;8.646;2024-02-21T01:58:47;20.23;;;6.30;;
71207;SDS011;58938;49.868;8.646;2024-02-21T02:01:14;16.45;;;6.45;;
71207;SDS011;58938;49.868;8.646;2024-02-21T02:03:40;16.05;;;6.20;;
71207;SDS011;58938;49.868;8.646;2024-02-21T02:06:08;16.80;;;6.03;;
71207;SDS011;58938;49.868;8.646;2024-02-21T02:08:34;19.02;;;5.97;;
71207;SDS011;58938;49.868;8.646;2024-02-21T02:11:01;14.05;;;6.72;;
71207;SDS011;58938;49.868;8.646;2024-02-21T02:13:27;17.77;;;7.07;;
71207;SDS011;58938;49.868;8.646;2024-02-21T02:15:53;17.27;;;7.32;;
71207;SDS011;58938;49.868;8.646;2024-02-21T02:18:20;17.20;;;6.20;;
71207;SDS011;58938;49.868;8.646;2024-02-21T02:20:47;16.35;;;6.85;;
71207;SDS011;58938;49.868;8.646;2024-02-21T02:23:32;16.55;;;6.82;;
71207;SDS011;58938;49.868;8.646;2024-02-21T02:25:58;20.90;;;6.63;;
71207;SDS011;58938;49.868;8.646;2024-02-21T02:28:26;16.88;;;6.88;;
71207;SDS011;58938;49.868;8.646;2024-02-21T02:30:52;19.23;;;6.67;;
71207;SDS011;58938;49.868;8.646;2024-02-21T02:33:18;15.60;;;5.90;;
71207;SDS011;58938;49.868;8.646;2024-02-21T02:35:44;17.67;;;7.10;;
71207;SDS011;58938;49.868;8.646;2024-02-21T02:38:10;13.13;;;6.13;;
71207;SDS011;58938;49.868;8.646;2024-02-21T02:40:38;18.05;;;6.72;;
71207;SDS011;58938;49.868;8.646;2024-02-21T02:43:05;16.93;;;6.33;;
71207;SDS011;58938;49.868;8.646;2024-02-21T02:45:31;15.82;;;5.45;;
71207;SDS011;58938;49.868;8.646;2024-02-21T02:47:58;13.15;;;6.20;;
71207;SDS011;58938;49.868;8.646;2024-02-21T02:50:24;15.43;;;5.25;;
71207;SDS011;58938;49.868;8.646;2024-02-21T02:52:50;17.00;;;5.80;;
71207;SDS011;58938;49.868;8.646;2024-02-21T02:55:16;13.80;;;6.22;;
71207;SDS011;58938;49.868;8.646;2024-02-21T02:57:42;18.05;;;6.85;;
71207;SDS011;58938;49.868;8.646;2024-02-21T03:00:10;16.90;;;6.03;;
71207;SDS011;58938;49.868;8.646;2024-02-21T03:02:37;13.27;;;6.13;;
71207;SDS011;58938;49.868;8.646;2024-02-21T03:05:03;13.97;;;5.87;;
71207;SDS011;58938;49.868;8.646;2024-02-21T03:07:36;15.98;;;6.18;;
71207;SDS011;58938;49.868;8.646;2024-02-21T03:10:02;15.48;;;6.07;;
71207;SDS011;58938;49.868;8.646;2024-02-21T03:12:28;13.38;;;6.65;;
71207;SDS011;58938;49.868;8.646;2024-02-21T03:14:54;17.67;;;6.43;;
71207;SDS011;58938;49.868;8.646;2024-02-21T03:17:21;15.83;;;7.33;;
71207;SDS011;58938;49.868;8.646;2024-02-21T03:19:47;15.95;;;5.93;;
71207;SDS011;58938;49.868;8.646;2024-02-21T03:22:13;17.92;;;5.40;;
71207;SDS011;58938;49.868;8.646;2024-02-21T03:24:39;17.52;;;6.15;;
71207;SDS011;58938;49.868;8.646;2024-02-21T03:27:05;12.10;;;5.57;;
71207;SDS011;58938;49.868;8.646;2024-02-21T03:29:31;14.45;;;6.03;;
71207;SDS011;58938;49.868;8.646;2024-02-21T03:31:57;21.38;;;5.72;;
71207;SDS011;58938;49.868;8.646;2024-02-21T03:34:23;15.50;;;6.78;;
71207;SDS011;58938;49.868;8.646;2024-02-21T03:36:49;12.37;;;5.47;;
71207;SDS011;58938;49.868;8.646;2024-02-21T03:39:15;18.15;;;5.60;;
71207;SDS011;58938;49.868;8.646;2024-02-21T03:41:41;17.92;;;6.00;;
71207;SDS011;58938;49.868;8.646;2024-02-21T03:44:08;15.13;;;5.72;;
71207;SDS011;58938;49.868;8.646;2024-02-21T03:46:34;14.83;;;5.93;;
71207;SDS011;58938;49.868;8.646;2024-02-21T03:49:00;15.32;;;6.90;;
71207;SDS011;58938;49.868;8.646;2024-02-21T03:51:26;17.25;;;5.53;;
71207;SDS011;58938;49.868;8.646;2024-02-21T03:53:52;16.70;;;5.90;;
71207;SDS011;58938;49.868;8.646;2024-02-21T03:56:18;14.40;;;4.80;;
71207;SDS011;58938;49.868;8.646;2024-02-21T03:58:44;14.73;;;5.63;;
71207;SDS011;58938;49.868;8.646;2024-02-21T04:01:10;16.15;;;5.45;;
71207;SDS011;58938;49.868;8.646;2024-02-21T04:03:37;14.30;;;5.68;;
71207;SDS011;58938;49.868;8.646;2024-02-21T04:06:03;19.20;;;6.27;;
71207;SDS011;58938;49.868;8.646;2024-02-21T04:08:29;10.68;;;5.45;;
71207;SDS011;58938;49.868;8.646;2024-02-21T04:10:55;12.30;;;5.43;;
71207;SDS011;58938;49.868;8.646;2024-02-21T04:13:21;15.25;;;6.75;;
71207;SDS011;58938;49.868;8.646;2024-02-21T04:15:48;18.95;;;6.47;;
71207;SDS011;58938;49.868;8.646;2024-02-21T04:18:13;17.03;;;6.03;;
71207;SDS011;58938;49.868;8.646;2024-02-21T04:20:40;12.00;;;4.93;;
71207;SDS011;58938;49.868;8.646;2024-02-21T04:23:06;14.18;;;5.90;;
71207;SDS011;58938;49.868;8.646;2024-02-21T04:25:32;12.20;;;6.13;;
71207;SDS011;58938;49.868;8.646;2024-02-21T04:27:57;19.97;;;6.33;;
71207;SDS011;58938;49.868;8.646;2024-02-21T04:30:23;14.55;;;6.85;;
71207;SDS011;58938;49.868;8.646;2024-02-21T04:32:49;13.10;;;6.13;;
71207;SDS011;58938;49.868;8.646;2024-02-21T04:35:15;13.10;;;5.90;;
71207;SDS011;58938;49.868;8.646;2024-02-21T04:37:41;15.82;;;5.60;;
71207;SDS011;58938;49.868;8.646;2024-02-21T04:40:07;13.50;;;6.30;;
71207;SDS011;58938;49.868;8.646;2024-02-21T04:42:34;13.90;;;6.38;;
71207;SDS011;58938;49.868;8.646;2024-02-21T04:45:00;17.43;;;7.03;;
71207;SDS011;58938;49.868;8.646;2024-02-21T04:47:26;17.63;;;6.10;;
71207;SDS011;58938;49.868;8.646;2024-02-21T04:49:52;14.88;;;5.82;;
71207;SDS011;58938;49.868;8.646;2024-02-21T04:52:18;17.13;;;6.25;;
71207;SDS011;58938;49.868;8.646;2024-02-21T04:54:43;14.67;;;5.50;;
71207;SDS011;58938;49.868;8.646;2024-02-21T04:57:09;22.85;;;6.13;;
71207;SDS011;58938;49.868;8.646;2024-02-21T04:59:36;15.00;;;5.68;;
71207;SDS011;58938;49.868;8.646;2024-02-21T05:02:02;17.02;;;6.30;;
71207;SDS011;58938;49.868;8.646;2024-02-21T05:04:28;10.77;;;6.10;;
71207;SDS011;58938;49.868;8.646;2024-02-21T05:06:54;16.02;;;6.55;;
71207;SDS011;58938;49.868;8.646;2024-02-21T05:09:20;15.02;;;6.10;;
71207;SDS011;58938;49.868;8.646;2024-02-21T05:11:46;15.98;;;6.07;;
71207;SDS011;58938;49.868;8.646;2024-02-21T05:14:12;18.80;;;6.00;;
71207;SDS011;58938;49.868;8.646;2024-02-21T05:16:38;17.27;;;5.78;;
71207;SDS011;58938;49.868;8.646;2024-02-21T05:19:05;15.80;;;7.15;;
71207;SDS011;58938;49.868;8.646;2024-02-21T05:21:31;16.10;;;6.20;;
71207;SDS011;58938;49.868;8.646;2024-02-21T05:23:56;15.97;;;6.97;;
71207;SDS011;58938;49.868;8.646;2024-02-21T05:26:23;14.32;;;5.95;;
71207;SDS011;58938;49.868;8.646;2024-02-21T05:28:49;12.23;;;5.88;;
71207;SDS011;58938;49.868;8.646;2024-02-21T05:31:18;16.67;;;5.45;;
71207;SDS011;58938;49.868;8.646;2024-02-21T05:33:45;16.10;;;5.40;;
71207;SDS011;58938;49.868;8.646;2024-02-21T05:36:11;14.70;;;6.00;;
71207;SDS011;58938;49.868;8.646;2024-02-21T05:38:37;15.13;;;6.18;;
71207;SDS011;58938;49.868;8.646;2024-02-21T05:41:03;13.93;;;6.20;;
71207;SDS011;58938;49.868;8.646;2024-02-21T05:43:29;18.38;;;5.82;;
71207;SDS011;58938;49.868;8.646;2024-02-21T05:45:55;14.53;;;5.17;;
71207;SDS011;58938;49.868;8.646;2024-02-21T05:48:22;14.00;;;5.00;;
71207;SDS011;58938;49.868;8.646;2024-02-21T05:50:48;12.95;;;6.10;;
71207;SDS011;58938;49.868;8.646;2024-02-21T05:53:14;11.00;;;5.30;;
71207;SDS011;58938;49.868;8.646;2024-02-21T05:55:40;18.13;;;6.47;;
71207;SDS011;58938;49.868;8.646;2024-02-21T05:58:06;11.88;;;5.38;;
71207;SDS011;58938;49.868;8.646;2024-02-21T06:00:32;14.55;;;5.85;;
71207;SDS011;58938;49.868;8.646;2024-02-21T06:02:58;13.57;;;4.55;;
71207;SDS011;58938;49.868;8.646;2024-02-21T06:05:24;12.00;;;5.57;;
71207;SDS011;58938;49.868;8.646;2024-02-21T06:07:50;10.90;;;4.57;;
71207;SDS011;58938;49.868;8.646;2024-02-21T06:10:16;16.25;;;5.85;;
71207;SDS011;58938;49.868;8.646;2024-02-21T06:12:42;14.85;;;5.45;;
71207;SDS011;58938;49.868;8.646;2024-02-21T06:15:08;12.88;;;5.35;;
71207;SDS011;58938;49.868;8.646;2024-02-21T06:17:34;16.33;;;5.22;;
71207;SDS011;58938;49.868;8.646;2024-02-21T06:20:00;14.13;;;6.50;;
71207;SDS011;58938;49.868;8.646;2024-02-21T06:22:26;14.15;;;5.60;;
71207;SDS011;58938;49.868;8.646;2024-02-21T06:24:52;15.25;;;5.07;;
71207;SDS011;58938;49.868;8.646;2024-02-21T06:27:19;13.48;;;5.82;;
71207;SDS011;58938;49.868;8.646;2024-02-21T06:29:45;12.47;;;5.53;;
71207;SDS011;58938;49.868;8.646;2024-02-21T06:32:11;14.80;;;5.32;;
71207;SDS011;58938;49.868;8.646;2024-02-21T06:34:37;18.00;;;5.53;;
71207;SDS011;58938;49.868;8.646;2024-02-21T06:37:03;13.25;;;5.25;;
71207;SDS011;58938;49.868;8.646;2024-02-21T06:39:29;11.18;;;5.68;;
71207;SDS011;58938;49.868;8.646;2024-02-21T06:41:55;15.00;;;5.67;;
71207;SDS011;58938;49.868;8.646;2024-02-21T06:44:21;12.88;;;5.25;;
71207;SDS011;58938;49.868;8.646;2024-02-21T06:46:47;12.35;;;5.28;;
71207;SDS011;58938;49.868;8.646;2024-02-21T06:49:13;13.52;;;5.72;;
71207;SDS011;58938;49.868;8.646;2024-02-21T06:51:44;18.03;;;5.97;;
71207;SDS011;58938;49.868;8.646;2024-02-21T06:54:10;16.85;;;5.80;;
71207;SDS011;58938;49.868;8.646;2024-02-21T06:56:36;13.82;;;5.97;;
71207;SDS011;58938;49.868;8.646;2024-02-21T06:59:02;12.20;;;4.93;;
71207;SDS011;58938;49.868;8.646;2024-02-21T07:01:28;10.90;;;5.43;;
71207;SDS011;58938;49.868;8.646;2024-02-21T07:03:54;12.97;;;5.10;;
71207;SDS011;58938;49.868;8.646;2024-02-21T07:06:21;19.55;;;6.32;;
71207;SDS011;58938;49.868;8.646;2024-02-21T07:08:47;15.60;;;6.45;;
71207;SDS011;58938;49.868;8.646;2024-02-21T07:11:13;14.50;;;5.57;;
71207;SDS011;58938;49.868;8.646;2024-02-21T07:13:39;12.27;;;4.90;;
71207;SDS011;58938;49.868;8.646;2024-02-21T07:16:05;14.25;;;5.60;;
71207;SDS011;58938;49.868;8.646;2024-02-21T07:18:31;12.70;;;5.40;;
71207;SDS011;58938;49.868;8.646;2024-02-21T07:20:57;15.52;;;6.15;;
71207;SDS011;58938;49.868;8.646;2024-02-21T07:23:23;13.68;;;6.18;;
71207;SDS011;58938;49.868;8.646;2024-02-21T07:25:49;16.93;;;6.17;;
71207;SDS011;58938;49.868;8.646;2024-02-21T07:28:15;15.85;;;5.43;;
71207;SDS011;58938;49.868;8.646;2024-02-21T07:30:42;13.05;;;5.95;;
71207;SDS011;58938;49.868;8.646;2024-02-21T07:33:08;14.13;;;5.90;;
71207;SDS011;58938;49.868;8.646;2024-02-21T07:35:34;13.63;;;5.78;;
71207;SDS011;58938;49.868;8.646;2024-02-21T07:38:03;15.77;;;6.07;;
71207;SDS011;58938;49.868;8.646;2024-02-21T07:40:29;15.35;;;5.88;;
71207;SDS011;58938;49.868;8.646;2024-02-21T07:42:55;13.70;;;5.55;;
71207;SDS011;58938;49.868;8.646;2024-02-21T07:45:21;16.08;;;6.00;;
71207;SDS011;58938;49.868;8.646;2024-02-21T07:47:49;13.60;;;5.57;;
71207;SDS011;58938;49.868;8.646;2024-02-21T07:50:15;16.23;;;5.60;;
71207;SDS011;58938;49.868;8.646;2024-02-21T07:52:41;14.52;;;5.00;;
71207;SDS011;58938;49.868;8.646;2024-02-21T07:55:07;12.48;;;5.32;;
71207;SDS011;58938;49.868;8.646;2024-02-21T07:57:35;15.82;;;5.38;;
71207;SDS011;58938;49.868;8.646;2024-02-21T08:00:02;12.87;;;5.43;;
71207;SDS011;58938;49.868;8.646;2024-02-21T08:02:29;15.07;;;5.60;;
71207;SDS011;58938;49.868;8.646;2024-02-21T08:04:55;14.68;;;5.38;;
71207;SDS011;58938;49.868;8.646;2024-02-21T08:07:21;11.73;;;5.63;;
71207;SDS011;58938;49.868;8.646;2024-02-21T08:09:47;15.80;;;5.82;;
71207;SDS011;58938;49.868;8.646;2024-02-21T08:12:13;18.83;;;6.13;;
71207;SDS011;58938;49.868;8.646;2024-02-21T08:14:39;15.63;;;5.38;;
71207;SDS011;58938;49.868;8.646;2024-02-21T08:17:05;11.82;;;6.18;;
71207;SDS011;58938;49.868;8.646;2024-02-21T08:19:31;15.13;;;5.60;;
71207;SDS011;58938;49.868;8.646;2024-02-21T08:21:57;16.27;;;5.70;;
71207;SDS011;58938;49.868;8.646;2024-02-21T08:24:23;15.10;;;6.10;;
71207;SDS011;58938;49.868;8.646;2024-02-21T08:26:49;15.43;;;6.03;;
71207;SDS011;58938;49.868;8.646;2024-02-21T08:29:14;19.00;;;6.63;;
71207;SDS011;58938;49.868;8.646;2024-02-21T08:31:40;15.93;;;5.53;;
71207;SDS011;58938;49.868;8.646;2024-02-21T08:34:06;14.48;;;5.63;;
71207;SDS011;58938;49.868;8.646;2024-02-21T08:36:33;17.67;;;5.88;;
71207;SDS011;58938;49.868;8.646;2024-02-21T08:38:59;15.35;;;5.38;;
71207;SDS011;58938;49.868;8.646;2024-02-21T08:41:26;15.07;;;5.90;;
71207;SDS011;58938;49.868;8.646;2024-02-21T08:43:52;16.13;;;5.80;;
71207;SDS011;58938;49.868;8.646;2024-02-21T08:46:18;12.23;;;5.47;;
71207;SDS011;58938;49.868;8.646;2024-02-21T08:48:45;12.18;;;4.72;;
71207;SDS011;58938;49.868;8.646;2024-02-21T08:51:11;15.93;;;5.70;;
71207;SDS011;58938;49.868;8.646;2024-02-21T08:53:37;12.73;;;4.80;;
71207;SDS011;58938;49.868;8.646;2024-02-21T08:56:03;12.25;;;5.50;;
71207;SDS011;58938;49.868;8.646;2024-02-21T08:58:29;16.77;;;5.05;;
71207;SDS011;58938;49.868;8.646;2024-02-21T09:00:55;11.25;;;5.80;;
71207;SDS011;58938;49.868;8.646;2024-02-21T09:03:22;9.73;;;5.00;;
71207;SDS011;58938;49.868;8.646;2024-02-21T09:05:48;14.60;;;6.07;;
71207;SDS011;58938;49.868;8.646;2024-02-21T09:08:14;22.25;;;5.78;;
71207;SDS011;58938;49.868;8.646;2024-02-21T09:10:40;16.52;;;5.35;;
71207;SDS011;58938;49.868;8.646;2024-02-21T09:13:06;15.77;;;6.55;;
71207;SDS011;58938;49.868;8.646;2024-02-21T09:15:34;15.10;;;5.50;;
71207;SDS011;58938;49.868;8.646;2024-02-21T09:18:00;11.93;;;5.97;;
71207;SDS011;58938;49.868;8.646;2024-02-21T09:20:26;18.48;;;6.50;;
71207;SDS011;58938;49.868;8.646;2024-02-21T09:22:52;13.98;;;5.88;;
71207;SDS011;58938;49.868;8.646;2024-02-21T09:25:18;16.33;;;6.53;;
71207;SDS011;58938;49.868;8.646;2024-02-21T09:27:44;18.33;;;6.13;;
71207;SDS011;58938;49.868;8.646;2024-02-21T09:30:11;13.63;;;5.25;;
71207;SDS011;58938;49.868;8.646;2024-02-21T09:32:40;11.50;;;5.60;;
71207;SDS011;58938;49.868;8.646;2024-02-21T09:35:06;13.18;;;6.25;;
71207;SDS011;58938;49.868;8.646;2024-02-21T09:37:32;15.50;;;6.32;;
71207;SDS011;58938;49.868;8.646;2024-02-21T09:39:58;14.43;;;6.20;;
71207;SDS011;58938;49.868;8.646;2024-02-21T09:42:27;15.95;;;6.35;;
71207;SDS011;58938;49.868;8.646;2024-02-21T09:44:55;14.48;;;6.40;;
71207;SDS011;58938;49.868;8.646;2024-02-21T09:47:24;15.30;;;6.30;;
71207;SDS011;58938;49.868;8.646;2024-02-21T09:49:56;14.30;;;5.47;;
71207;SDS011;58938;49.868;8.646;2024-02-21T09:52:22;15.27;;;6.00;;
71207;SDS011;58938;49.868;8.646;2024-02-21T09:54:48;15.15;;;6.18;;
71207;SDS011;58938;49.868;8.646;2024-02-21T09:57:17;18.63;;;5.90;;
71207;SDS011;58938;49.868;8.646;2024-02-21T09:59:43;12.88;;;6.03;;
71207;SDS011;58938;49.868;8.646;2024-02-21T10:02:11;10.33;;;5.60;;
71207;SDS011;58938;49.868;8.646;2024-02-21T10:04:37;13.55;;;6.00;;
71207;SDS011;58938;49.868;8.646;2024-02-21T10:07:05;12.52;;;6.40;;
71207;SDS011;58938;49.868;8.646;2024-02-21T10:09:31;11.88;;;6.15;;
71207;SDS011;58938;49.868;8.646;2024-02-21T10:12:08;9.85;;;5.63;;
71207;SDS011;58938;49.868;8.646;2024-02-21T10:14:37;14.20;;;5.60;;
71207;SDS011;58938;49.868;8.646;2024-02-21T10:17:03;14.77;;;4.95;;
71207;SDS011;58938;49.868;8.646;2024-02-21T10:19:34;15.68;;;6.25;;
71207;SDS011;58938;49.868;8.646;2024-02-21T10:24:29;10.70;;;5.22;;
71207;SDS011;58938;49.868;8.646;2024-02-21T10:27:02;15.93;;;5.50;;
71207;SDS011;58938;49.868;8.646;2024-02-21T10:29:31;11.82;;;4.95;;
71207;SDS011;58938;49.868;8.646;2024-02-21T10:32:10;13.32;;;5.50;;
71207;SDS011;58938;49.868;8.646;2024-02-21T10:34:37;15.10;;;5.10;;
71207;SDS011;58938;49.868;8.646;2024-02-21T10:37:03;14.60;;;6.00;;
71207;SDS011;58938;49.868;8.646;2024-02-21T10:39:31;13.00;;;4.80;;
71207;SDS011;58938;49.868;8.646;2024-02-21T10:41:58;10.93;;;4.45;;
71207;SDS011;58938;49.868;8.646;2024-02-21T10:44:27;14.82;;;5.90;;
71207;SDS011;58938;49.868;8.646;2024-02-21T10:46:55;17.58;;;5.10;;
71207;SDS011;58938;49.868;8.646;2024-02-21T10:49:25;9.23;;;4.60;;
71207;SDS011;58938;49.868;8.646;2024-02-21T10:52:00;14.23;;;4.57;;
71207;SDS011;58938;49.868;8.646;2024-02-21T10:56:57;13.20;;;5.00;;
71207;SDS011;58938;49.868;8.646;2024-02-21T10:59:24;17.40;;;5.85;;
71207;SDS011;58938;49.868;8.646;2024-02-21T11:01:51;10.20;;;5.50;;
71207;SDS011;58938;49.868;8.646;2024-02-21T11:04:17;14.97;;;6.43;;
71207;SDS011;58938;49.868;8.646;2024-02-21T11:06:43;13.85;;;5.65;;
71207;SDS011;58938;49.868;8.646;2024-02-21T11:09:10;13.82;;;5.70;;
71207;SDS011;58938;49.868;8.646;2024-02-21T11:11:40;13.82;;;6.53;;
71207;SDS011;58938;49.868;8.646;2024-02-21T11:16:39;16.73;;;5.65;;
71207;SDS011;58938;49.868;8.646;2024-02-21T11:19:09;13.43;;;5.05;;
71207;SDS011;58938;49.868;8.646;2024-02-21T11:21:38;13.38;;;5.38;;
71207;SDS011;58938;49.868;8.646;2024-02-21T11:24:05;12.63;;;4.75;;
71207;SDS011;58938;49.868;8.646;2024-02-21T11:26:32;13.60;;;4.93;;
71207;SDS011;58938;49.868;8.646;2024-02-21T11:28:58;13.15;;;5.10;;
71207;SDS011;58938;49.868;8.646;2024-02-21T11:31:25;13.50;;;5.25;;
71207;SDS011;58938;49.868;8.646;2024-02-21T11:33:54;14.45;;;4.45;;
71207;SDS011;58938;49.868;8.646;2024-02-21T11:36:24;15.10;;;5.18;;
71207;SDS011;58938;49.868;8.646;2024-02-21T11:38:51;13.70;;;5.30;;
71207;SDS011;58938;49.868;8.646;2024-02-21T11:41:18;13.93;;;5.22;;
71207;SDS011;58938;49.868;8.646;2024-02-21T11:43:45;16.00;;;4.32;;
71207;SDS011;58938;49.868;8.646;2024-02-21T11:46:11;9.45;;;4.32;;
71207;SDS011;58938;49.868;8.646;2024-02-21T11:48:38;12.30;;;5.13;;
71207;SDS011;58938;49.868;8.646;2024-02-21T11:51:04;10.33;;;4.97;;
71207;SDS011;58938;49.868;8.646;2024-02-21T11:53:30;16.35;;;5.30;;
71207;SDS011;58938;49.868;8.646;2024-02-21T11:55:58;11.38;;;4.90;;
71207;SDS011;58938;49.868;8.646;2024-02-21T11:58:24;11.15;;;4.35;;
71207;SDS011;58938;49.868;8.646;2024-02-21T12:00:51;13.32;;;4.47;;
71207;SDS011;58938;49.868;8.646;2024-02-21T12:03:17;15.73;;;4.40;;
71207;SDS011;58938;49.868;8.646;2024-02-21T12:05:43;13.70;;;5.30;;
71207;SDS011;58938;49.868;8.646;2024-02-21T12:08:11;15.23;;;4.88;;
71207;SDS011;58938;49.868;8.646;2024-02-21T12:10:37;15.13;;;4.75;;
71207;SDS011;58938;49.868;8.646;2024-02-21T12:13:09;14.07;;;4.73;;
71207;SDS011;58938;49.868;8.646;2024-02-21T12:15:35;12.15;;;4.55;;
71207;SDS011;58938;49.868;8.646;2024-02-21T12:18:01;10.55;;;4.25;;
71207;SDS011;58938;49.868;8.646;2024-02-21T12:20:27;11.60;;;3.95;;
71207;SDS011;58938;49.868;8.646;2024-02-21T12:22:53;9.50;;;4.17;;
71207;SDS011;58938;49.868;8.646;2024-02-21T12:25:20;10.40;;;4.40;;
71207;SDS011;58938;49.868;8.646;2024-02-21T12:27:51;13.57;;;4.20;;
71207;SDS011;58938;49.868;8.646;2024-02-21T12:30:17;11.32;;;3.60;;
71207;SDS011;58938;49.868;8.646;2024-02-21T12:32:44;7.63;;;3.27;;
71207;SDS011;58938;49.868;8.646;2024-02-21T12:35:10;11.70;;;3.45;;
71207;SDS011;58938;49.868;8.646;2024-02-21T12:37:36;11.55;;;3.33;;
71207;SDS011;58938;49.868;8.646;2024-02-21T12:40:03;9.98;;;3.63;;
71207;SDS011;58938;49.868;8.646;2024-02-21T12:42:31;10.93;;;4.07;;
71207;SDS011;58938;49.868;8.646;2024-02-21T12:44:58;12.40;;;4.20;;
71207;SDS011;58938;49.868;8.646;2024-02-21T12:47:24;10.82;;;3.38;;
71207;SDS011;58938;49.868;8.646;2024-02-21T12:49:51;9.15;;;2.83;;
71207;SDS011;58938;49.868;8.646;2024-02-21T12:52:17;12.82;;;3.65;;
71207;SDS011;58938;49.868;8.646;2024-02-21T12:54:43;10.27;;;3.67;;
71207;SDS011;58938;49.868;8.646;2024-02-21T12:57:09;9.23;;;3.72;;
71207;SDS011;58938;49.868;8.646;2024-02-21T12:59:35;9.98;;;3.25;;
71207;SDS011;58938;49.868;8.646;2024-02-21T13:02:01;8.75;;;3.65;;
71207;SDS011;58938;49.868;8.646;2024-02-21T13:04:27;10.90;;;3.80;;
71207;SDS011;58938;49.868;8.646;2024-02-21T13:06:53;9.02;;;3.53;;
71207;SDS011;58938;49.868;8.646;2024-02-21T13:09:20;13.02;;;4.07;;
71207;SDS011;58938;49.868;8.646;2024-02-21T13:11:46;9.02;;;3.58;;
71207;SDS011;58938;49.868;8.646;2024-02-21T13:14:12;9.02;;;3.67;;
71207;SDS011;58938;49.868;8.646;2024-02-21T13:16:38;7.73;;;3.23;;
71207;SDS011;58938;49.868;8.646;2024-02-21T13:19:06;8.40;;;3.30;;
71207;SDS011;58938;49.868;8.646;2024-02-21T13:21:33;9.60;;;3.35;;
71207;SDS011;58938;49.868;8.646;2024-02-21T13:23:59;7.85;;;3.60;;
71207;SDS011;58938;49.868;8.646;2024-02-21T13:26:25;10.40;;;3.60;;
71207;SDS011;58938;49.868;8.646;2024-02-21T13:28:51;9.82;;;3.42;;
71207;SDS011;58938;49.868;8.646;2024-02-21T13:31:17;12.30;;;3.53;;
71207;SDS011;58938;49.868;8.646;2024-02-21T13:33:43;9.05;;;3.20;;
71207;SDS011;58938;49.868;8.646;2024-02-21T13:36:11;8.02;;;3.45;;
71207;SDS011;58938;49.868;8.646;2024-02-21T13:38:38;6.57;;;2.87;;
71207;SDS011;58938;49.868;8.646;2024-02-21T13:41:04;10.30;;;3.08;;
71207;SDS011;58938;49.868;8.646;2024-02-21T13:43:31;13.55;;;4.25;;
71207;SDS011;58938;49.868;8.646;2024-02-21T13:45:58;11.98;;;3.78;;
71207;SDS011;58938;49.868;8.646;2024-02-21T13:48:24;10.27;;;3.70;;
71207;SDS011;58938;49.868;8.646;2024-02-21T13:50:52;10.73;;;3.23;;
71207;SDS011;58938;49.868;8.646;2024-02-21T13:53:17;12.27;;;3.53;;
71207;SDS011;58938;49.868;8.646;2024-02-21T13:55:44;12.20;;;3.88;;
71207;SDS011;58938;49.868;8.646;2024-02-21T13:58:10;10.38;;;3.00;;
71207;SDS011;58938;49.868;8.646;2024-02-21T14:00:36;12.73;;;3.40;;
71207;SDS011;58938;49.868;8.646;2024-02-21T14:03:02;12.60;;;3.33;;
71207;SDS011;58938;49.868;8.646;2024-02-21T14:05:28;7.82;;;3.97;;
71207;SDS011;58938;49.868;8.646;2024-02-21T14:07:55;11.35;;;4.05;;
71207;SDS011;58938;49.868;8.646;2024-02-21T14:10:21;8.57;;;3.30;;
71207;SDS011;58938;49.868;8.646;2024-02-21T14:12:47;7.23;;;2.90;;
71207;SDS011;58938;49.868;8.646;2024-02-21T14:15:14;10.05;;;3.22;;
71207;SDS011;58938;49.868;8.646;2024-02-21T14:17:41;7.88;;;3.40;;
71207;SDS011;58938;49.868;8.646;2024-02-21T14:20:07;11.98;;;2.88;;
71207;SDS011;58938;49.868;8.646;2024-02-21T14:22:34;9.55;;;3.55;;
71207;SDS011;58938;49.868;8.646;2024-02-21T14:25:02;10.20;;;4.13;;
71207;SDS011;58938;49.868;8.646;2024-02-21T14:27:30;10.75;;;3.83;;
71207;SDS011;58938;49.868;8.646;2024-02-21T14:29:56;8.25;;;3.72;;
71207;SDS011;58938;49.868;8.646;2024-02-21T14:32:22;10.93;;;3.72;;
71207;SDS011;58938;49.868;8.646;2024-02-21T14:34:48;12.20;;;4.32;;
71207;SDS011;58938;49.868;8.646;2024-02-21T14:37:14;9.60;;;3.50;;
71207;SDS011;58938;49.868;8.646;2024-02-21T14:39:40;10.38;;;3.53;;